createdAt,value
2023-05-12T00:00:52.046Z,16.05
2023-05-12T00:03:23.602Z,16.04
2023-05-12T00:05:55.112Z,16.01
2023-05-12T00:08:26.919Z,16.02
2023-05-12T00:10:58.368Z,15.97
2023-05-12T00:13:30.178Z,15.97
2023-05-12T00:16:02.169Z,15.89
2023-05-12T00:18:33.791Z,15.85
2023-05-12T00:21:05.682Z,15.73
2023-05-12T00:23:37.135Z,14.93
2023-05-12T00:26:08.908Z,15.72
2023-05-12T00:28:40.361Z,15.62
2023-05-12T00:31:12.262Z,15.58
2023-05-12T00:33:43.769Z,15.53
2023-05-12T00:36:15.558Z,15.45
2023-05-12T00:38:47.016Z,15.39
2023-05-12T00:41:18.845Z,15.41
2023-05-12T00:43:50.320Z,15.38
2023-05-12T00:46:22.168Z,15.33
2023-05-12T00:48:53.998Z,15.29
2023-05-12T00:51:25.466Z,14.58
2023-05-12T00:53:57.120Z,15.22
2023-05-12T00:56:28.582Z,15.15
2023-05-12T00:59:00.360Z,15.10
2023-05-12T01:01:31.845Z,15.00
2023-05-12T01:04:03.595Z,15.00
2023-05-12T01:06:35.057Z,14.94
2023-05-12T01:09:06.959Z,14.88
2023-05-12T01:11:38.426Z,14.85
2023-05-12T01:14:10.213Z,14.88
2023-05-12T01:16:41.694Z,14.85
2023-05-12T01:19:13.208Z,14.81
2023-05-12T01:21:44.864Z,14.79
2023-05-12T01:24:16.351Z,14.78
2023-05-12T01:26:47.881Z,14.78
2023-05-12T01:29:19.302Z,14.79
2023-05-12T01:31:50.773Z,14.78
2023-05-12T01:34:22.213Z,14.78
2023-05-12T01:36:54.011Z,14.83
2023-05-12T01:39:25.491Z,14.82
2023-05-12T01:41:57.365Z,14.80
2023-05-12T01:44:28.811Z,14.79
2023-05-12T01:47:00.287Z,14.77
2023-05-12T01:49:32.135Z,14.74
2023-05-12T01:52:03.851Z,14.74
2023-05-12T01:54:35.330Z,14.73
2023-05-12T01:57:06.787Z,14.73
2023-05-12T01:59:38.271Z,14.75
2023-05-12T02:02:09.796Z,14.79
2023-05-12T02:04:41.292Z,14.74
2023-05-12T02:07:12.754Z,14.71
2023-05-12T02:09:44.536Z,14.75
2023-05-12T02:12:15.988Z,14.73
2023-05-12T02:14:47.808Z,14.73
2023-05-12T02:17:19.300Z,14.68
2023-05-12T02:19:50.950Z,14.64
2023-05-12T02:22:22.818Z,14.57
2023-05-12T02:24:54.617Z,14.58
2023-05-12T02:27:26.575Z,14.49
2023-05-12T02:29:58.154Z,14.42
2023-05-12T02:32:29.980Z,14.42
2023-05-12T02:35:01.464Z,14.34
2023-05-12T02:37:33.383Z,14.36
2023-05-12T02:40:04.855Z,14.29
2023-05-12T02:42:36.349Z,14.19
2023-05-12T02:45:07.799Z,14.13
2023-05-12T02:47:39.329Z,14.07
2023-05-12T02:50:10.801Z,14.05
2023-05-12T02:52:42.620Z,13.94
2023-05-12T02:55:14.367Z,13.89
2023-05-12T02:57:46.177Z,13.79
2023-05-12T03:00:17.966Z,13.76
2023-05-12T03:02:49.582Z,13.67
2023-05-12T03:05:21.308Z,13.63
2023-05-12T03:07:52.767Z,13.54
2023-05-12T03:10:24.391Z,13.48
2023-05-12T03:12:55.852Z,13.33
2023-05-12T03:15:27.767Z,13.25
2023-05-12T03:17:59.241Z,13.21
2023-05-12T03:20:31.290Z,13.15
2023-05-12T03:23:02.754Z,13.11
2023-05-12T03:25:34.203Z,12.97
2023-05-12T03:28:06.014Z,12.91
2023-05-12T03:30:37.472Z,12.90
2023-05-12T03:33:08.994Z,12.84
2023-05-12T03:35:40.443Z,12.81
2023-05-12T03:38:12.212Z,12.79
2023-05-12T03:40:43.669Z,12.78
2023-05-12T03:43:15.151Z,12.77
2023-05-12T03:45:46.596Z,12.73
2023-05-12T03:48:18.446Z,12.72
2023-05-12T03:50:49.904Z,12.67
2023-05-12T03:53:21.569Z,12.64
2023-05-12T03:55:53.020Z,12.65
2023-05-12T03:58:24.492Z,12.68
2023-05-12T04:00:56.928Z,12.62
2023-05-12T04:03:28.465Z,12.60
2023-05-12T04:06:00.286Z,12.58
2023-05-12T04:08:31.732Z,12.53
2023-05-12T04:11:03.597Z,12.46
2023-05-12T04:13:35.101Z,12.46
2023-05-12T04:16:06.953Z,12.46
2023-05-12T04:18:38.468Z,12.47
2023-05-12T04:21:09.923Z,12.58
2023-05-12T04:23:41.369Z,12.67
2023-05-12T04:26:12.986Z,12.75
2023-05-12T04:28:44.425Z,12.91
2023-05-12T04:31:16.183Z,12.90
2023-05-12T04:33:48.425Z,12.94
2023-05-12T04:36:20.363Z,12.92
2023-05-12T04:38:51.800Z,12.88
2023-05-12T04:41:23.272Z,13.02
2023-05-12T04:46:29.106Z,13.19
2023-05-12T04:49:00.666Z,13.20
2023-05-12T04:51:32.258Z,13.36
2023-05-12T04:54:04.268Z,13.69
2023-05-12T04:56:35.738Z,13.76
2023-05-12T04:59:07.557Z,13.74
2023-05-12T05:01:39.058Z,14.07
2023-05-12T05:04:10.590Z,14.39
2023-05-12T05:06:42.035Z,14.35
2023-05-12T05:09:13.503Z,14.70
2023-05-12T05:11:44.953Z,15.17
2023-05-12T05:14:16.787Z,15.00
2023-05-12T05:16:48.254Z,15.15
2023-05-12T05:19:25.739Z,15.04
2023-05-12T05:22:09.148Z,15.19
2023-05-12T05:24:40.601Z,15.24
2023-05-12T05:27:12.380Z,15.47
2023-05-12T05:29:43.843Z,15.66
2023-05-12T05:32:15.617Z,16.04
2023-05-12T05:34:47.113Z,16.34
2023-05-12T05:37:18.923Z,16.43
2023-05-12T05:39:50.409Z,16.49
2023-05-12T05:42:22.233Z,16.73
2023-05-12T05:44:53.884Z,16.84
2023-05-12T05:47:25.569Z,17.04
2023-05-12T05:49:57.389Z,16.92
2023-05-12T05:52:28.843Z,17.05
2023-05-12T05:55:00.344Z,17.21
2023-05-12T05:57:31.797Z,17.31
2023-05-12T06:00:03.300Z,17.61
2023-05-12T06:02:35.027Z,17.70
2023-05-12T06:05:07.005Z,17.84
2023-05-12T06:07:38.444Z,17.87
2023-05-12T06:10:10.121Z,17.98
2023-05-12T06:12:41.573Z,17.95
2023-05-12T06:15:13.520Z,18.29
2023-05-12T06:17:45.376Z,18.32
2023-05-12T06:20:16.864Z,18.34
2023-05-12T06:22:48.627Z,18.65
2023-05-12T06:25:20.250Z,18.87
2023-05-12T06:27:52.187Z,19.00
2023-05-12T06:30:23.634Z,18.84
2023-05-12T06:32:55.460Z,18.94
2023-05-12T06:35:26.923Z,18.80
2023-05-12T06:37:58.698Z,19.24
2023-05-12T06:40:30.191Z,19.31
2023-05-12T06:43:01.673Z,19.56
2023-05-12T06:45:33.518Z,19.42
2023-05-12T06:48:05.439Z,19.86
2023-05-12T06:50:36.990Z,19.91
2023-05-12T06:53:08.446Z,19.82
2023-05-12T06:55:39.953Z,19.74
2023-05-12T06:58:11.414Z,19.99
2023-05-12T07:00:43.270Z,20.17
2023-05-12T07:03:14.856Z,20.25
2023-05-12T07:05:46.838Z,20.55
2023-05-12T07:08:18.320Z,20.76
2023-05-12T07:10:49.792Z,20.80
2023-05-12T07:13:21.243Z,21.03
2023-05-12T07:15:52.930Z,21.37
2023-05-12T07:18:24.828Z,21.73
2023-05-12T07:20:56.702Z,21.70
2023-05-12T07:23:28.515Z,21.42
2023-05-12T07:25:59.984Z,21.43
2023-05-12T07:28:31.898Z,21.61
2023-05-12T07:31:03.400Z,21.73
2023-05-12T07:33:34.894Z,21.76
2023-05-12T07:36:06.336Z,22.02
2023-05-12T07:38:37.827Z,22.25
2023-05-12T07:41:09.296Z,22.56
2023-05-12T07:43:41.944Z,22.77
2023-05-12T07:46:13.443Z,22.89
2023-05-12T07:48:44.918Z,22.88
2023-05-12T07:51:16.384Z,22.64
2023-05-12T07:53:47.841Z,23.09
2023-05-12T07:56:19.815Z,23.02
2023-05-12T07:58:51.458Z,23.16
2023-05-12T08:01:22.917Z,23.30
2023-05-12T08:03:54.453Z,23.12
2023-05-12T08:06:25.996Z,23.41
2023-05-12T08:08:57.472Z,23.34
2023-05-12T08:11:29.204Z,23.28
2023-05-12T08:14:00.670Z,23.24
2023-05-12T08:16:32.489Z,23.62
2023-05-12T08:19:04.404Z,23.74
2023-05-12T08:21:36.045Z,23.78
2023-05-12T08:24:07.917Z,23.89
2023-05-12T08:26:39.406Z,24.29
2023-05-12T08:29:11.064Z,24.80
2023-05-12T08:31:42.561Z,24.70
2023-05-12T08:34:14.532Z,24.14
2023-05-12T08:36:46.089Z,24.69
2023-05-12T08:39:20.447Z,24.68
2023-05-12T08:41:52.002Z,23.98
2023-05-12T08:44:24.065Z,24.47
2023-05-12T08:46:55.546Z,23.92
2023-05-12T08:49:27.392Z,23.85
2023-05-12T08:51:59.383Z,23.78
2023-05-12T08:54:31.253Z,24.01
2023-05-12T08:59:37.216Z,24.44
2023-05-12T09:02:09.020Z,24.35
2023-05-12T09:04:40.606Z,24.29
2023-05-12T09:07:12.380Z,24.68
2023-05-12T09:09:43.837Z,24.21
2023-05-12T09:12:16.796Z,24.68
2023-05-12T09:14:48.398Z,24.16
2023-05-12T09:17:19.869Z,24.09
2023-05-12T09:19:51.673Z,24.90
2023-05-12T09:22:23.487Z,24.67
2023-05-12T09:24:55.139Z,24.55
2023-05-12T09:27:26.585Z,24.78
2023-05-12T09:29:59.876Z,24.85
2023-05-12T09:32:31.499Z,24.78
2023-05-12T09:35:02.992Z,25.23
2023-05-12T09:37:34.437Z,25.68
2023-05-12T09:40:06.220Z,25.52
2023-05-12T09:42:37.731Z,25.33
2023-05-12T09:45:09.583Z,25.30
2023-05-12T09:47:41.094Z,25.36
2023-05-12T09:50:12.832Z,25.90
2023-05-12T09:52:44.629Z,25.84
2023-05-12T09:55:16.103Z,25.89
2023-05-12T09:57:47.924Z,26.16
2023-05-12T10:00:33.266Z,26.05
2023-05-12T10:03:11.328Z,26.16
2023-05-12T10:05:42.861Z,25.35
2023-05-12T10:08:14.601Z,25.14
2023-05-12T10:10:46.073Z,26.04
2023-05-12T10:13:17.853Z,26.17
2023-05-12T10:15:49.850Z,26.18
2023-05-12T10:18:21.662Z,26.62
2023-05-12T10:20:53.488Z,26.59
2023-05-12T10:23:24.960Z,26.73
2023-05-12T10:25:56.898Z,27.54
2023-05-12T10:28:28.361Z,26.99
2023-05-12T10:31:00.227Z,27.14
2023-05-12T10:33:31.944Z,27.48
2023-05-12T10:36:03.888Z,27.86
2023-05-12T10:38:35.351Z,28.01
2023-05-12T10:41:07.053Z,28.23
2023-05-12T10:43:38.544Z,28.95
2023-05-12T10:46:10.284Z,27.87
2023-05-12T10:48:42.158Z,28.69
2023-05-12T10:51:13.697Z,29.18
2023-05-12T10:53:50.085Z,28.60
2023-05-12T10:56:24.458Z,28.16
2023-05-12T10:58:56.836Z,27.92
2023-05-12T11:01:28.890Z,27.82
2023-05-12T11:04:01.362Z,27.44
2023-05-12T11:06:33.025Z,26.24
2023-05-12T11:09:05.159Z,25.67
2023-05-12T11:11:38.438Z,26.75
2023-05-12T11:14:10.431Z,27.87
2023-05-12T11:16:42.282Z,27.47
2023-05-12T11:19:13.933Z,27.44
2023-05-12T11:21:45.778Z,28.12
2023-05-12T11:24:17.225Z,27.96
2023-05-12T11:26:48.834Z,27.73
2023-05-12T11:29:20.314Z,27.02
2023-05-12T11:31:52.333Z,27.84
2023-05-12T11:34:23.798Z,28.52
2023-05-12T11:36:55.515Z,28.29
2023-05-12T11:39:26.956Z,26.95
2023-05-12T11:42:09.143Z,26.37
2023-05-12T11:44:44.377Z,27.69
2023-05-12T11:47:15.857Z,27.76
2023-05-12T11:49:47.691Z,27.57
2023-05-12T11:52:19.176Z,27.82
2023-05-12T11:54:51.052Z,27.74
2023-05-12T11:57:22.515Z,27.15
2023-05-12T11:59:54.226Z,26.81
2023-05-12T12:02:25.779Z,27.16
2023-05-12T12:04:57.431Z,27.04
2023-05-12T12:07:32.078Z,26.90
2023-05-12T12:10:03.943Z,26.86
2023-05-12T12:12:35.668Z,27.54
2023-05-12T12:15:07.333Z,26.80
2023-05-12T12:17:38.935Z,27.49
2023-05-12T12:20:10.481Z,27.72
2023-05-12T12:22:42.266Z,28.41
2023-05-12T12:25:13.734Z,27.48
2023-05-12T12:27:45.526Z,27.22
2023-05-12T12:30:16.982Z,26.83
2023-05-12T12:32:48.849Z,26.24
2023-05-12T12:35:20.537Z,26.71
2023-05-12T12:37:52.438Z,26.09
2023-05-12T12:40:23.924Z,26.86
2023-05-12T12:42:55.678Z,27.70
2023-05-12T12:45:27.522Z,26.83
2023-05-12T12:47:59.225Z,25.75
2023-05-12T12:50:30.945Z,26.29
2023-05-12T12:53:02.416Z,26.21
2023-05-12T12:55:33.904Z,27.22
2023-05-12T12:58:05.362Z,27.65
2023-05-12T13:00:36.883Z,27.83
2023-05-12T13:03:08.429Z,27.91
2023-05-12T13:05:39.942Z,27.99
2023-05-12T13:08:11.394Z,27.77
2023-05-12T13:10:43.188Z,27.80
2023-05-12T13:13:14.642Z,27.28
2023-05-12T13:15:46.436Z,27.85
2023-05-12T13:18:18.248Z,27.71
2023-05-12T13:20:49.773Z,27.01
2023-05-12T13:23:21.528Z,27.42
2023-05-12T13:25:52.993Z,28.52
2023-05-12T13:28:24.808Z,28.41
2023-05-12T13:30:56.304Z,28.62
2023-05-12T13:33:28.293Z,28.34
2023-05-12T13:35:59.742Z,28.90
2023-05-12T13:38:31.561Z,27.36
2023-05-12T13:41:03.055Z,28.17
2023-05-12T13:43:34.520Z,28.27
2023-05-12T13:46:06.527Z,28.51
2023-05-12T13:48:37.997Z,27.66
2023-05-12T13:51:09.982Z,28.33
2023-05-12T13:53:41.407Z,29.02
2023-05-12T13:56:13.196Z,27.56
2023-05-12T13:58:44.812Z,28.23
2023-05-12T14:01:16.906Z,28.20
2023-05-12T14:03:48.441Z,28.92
2023-05-12T14:06:20.240Z,29.23
2023-05-12T14:08:51.710Z,29.11
2023-05-12T14:11:23.685Z,29.42
2023-05-12T14:13:55.537Z,28.96
2023-05-12T14:16:27.442Z,29.40
2023-05-12T14:18:59.315Z,29.51
2023-05-12T14:21:30.798Z,29.32
2023-05-12T14:24:02.694Z,29.64
2023-05-12T14:26:34.163Z,29.29
2023-05-12T14:29:06.966Z,28.62
2023-05-12T14:31:40.240Z,29.90
2023-05-12T14:34:12.092Z,29.52
2023-05-12T14:36:43.559Z,29.79
2023-05-12T14:39:15.186Z,29.98
2023-05-12T14:41:46.838Z,29.37
2023-05-12T14:44:18.614Z,28.53
2023-05-12T14:46:50.451Z,28.81
2023-05-12T14:49:21.911Z,28.99
2023-05-12T14:51:53.784Z,29.31
2023-05-12T14:54:26.102Z,27.89
2023-05-12T14:56:58.074Z,27.06
2023-05-12T14:59:29.556Z,28.59
2023-05-12T15:02:01.415Z,29.39
2023-05-12T15:04:32.910Z,29.20
2023-05-12T15:07:04.872Z,29.31
2023-05-12T15:09:36.320Z,29.64
2023-05-12T15:12:08.133Z,29.27
2023-05-12T15:14:39.614Z,29.30
2023-05-12T15:17:11.191Z,29.76
2023-05-12T15:19:42.809Z,29.61
2023-05-12T15:22:14.274Z,29.54
2023-05-12T15:24:45.806Z,29.49
2023-05-12T15:27:17.262Z,29.58
2023-05-12T15:29:49.080Z,29.58
2023-05-12T15:32:20.531Z,29.02
2023-05-12T15:34:52.365Z,28.76
2023-05-12T15:37:23.820Z,29.04
2023-05-12T15:39:55.469Z,29.59
2023-05-12T15:42:32.960Z,29.59
2023-05-12T15:45:04.948Z,28.26
2023-05-12T15:47:36.489Z,28.38
2023-05-12T15:50:08.031Z,28.54
2023-05-12T15:52:39.491Z,28.17
2023-05-12T15:55:10.949Z,27.76
2023-05-12T15:57:42.900Z,27.42
2023-05-12T16:00:14.402Z,27.43
2023-05-12T16:02:46.212Z,27.42
2023-05-12T16:05:17.795Z,27.15
2023-05-12T16:07:49.436Z,26.90
2023-05-12T16:10:21.203Z,26.28
2023-05-12T16:12:52.826Z,25.90
2023-05-12T16:15:24.480Z,25.39
2023-05-12T16:17:56.000Z,24.97
2023-05-12T16:20:27.791Z,24.84
2023-05-12T16:22:59.252Z,24.40
2023-05-12T16:25:30.971Z,24.36
2023-05-12T16:28:02.421Z,23.73
2023-05-12T16:30:33.892Z,23.99
2023-05-12T16:33:05.374Z,23.79
2023-05-12T16:35:36.877Z,23.45
2023-05-12T16:38:08.334Z,23.50
2023-05-12T16:40:39.787Z,23.31
2023-05-12T16:43:11.648Z,23.23
2023-05-12T16:45:43.088Z,23.10
2023-05-12T16:48:14.890Z,23.04
2023-05-12T16:50:46.361Z,22.88
2023-05-12T16:53:18.334Z,22.81
2023-05-12T16:55:49.807Z,22.83
2023-05-12T16:58:21.261Z,22.62
2023-05-12T17:00:52.982Z,22.55
2023-05-12T17:03:24.689Z,22.40
2023-05-12T17:05:56.181Z,22.49
2023-05-12T17:08:27.959Z,22.39
2023-05-12T17:10:59.718Z,22.41
2023-05-12T17:13:31.181Z,22.37
2023-05-12T17:16:02.701Z,22.28
2023-05-12T17:19:13.627Z,22.30
2023-05-12T17:21:25.750Z,22.19
2023-05-12T17:23:57.236Z,22.30
2023-05-12T17:26:29.119Z,22.13
2023-05-12T17:29:00.622Z,21.94
2023-05-12T17:31:32.346Z,21.88
2023-05-12T17:34:04.107Z,21.82
2023-05-12T17:36:35.631Z,21.78
2023-05-12T17:39:07.500Z,21.69
2023-05-12T17:41:38.997Z,21.72
2023-05-12T17:44:10.728Z,21.68
2023-05-12T17:46:42.254Z,21.58
2023-05-12T17:49:13.830Z,21.54
2023-05-12T17:51:45.319Z,21.43
2023-05-12T17:54:17.123Z,21.38
2023-05-12T17:56:48.591Z,21.43
2023-05-12T17:59:20.076Z,21.38
2023-05-12T18:01:51.621Z,21.35
2023-05-12T18:04:23.315Z,21.16
2023-05-12T18:06:55.058Z,21.15
2023-05-12T18:09:26.859Z,21.02
2023-05-12T18:11:58.741Z,21.01
2023-05-12T18:14:30.168Z,20.87
2023-05-12T18:17:02.039Z,20.80
2023-05-12T18:19:33.525Z,20.75
2023-05-12T18:22:05.112Z,20.77
2023-05-12T18:24:36.563Z,20.64
2023-05-12T18:27:08.026Z,20.55
2023-05-12T18:29:40.631Z,20.47
2023-05-12T18:32:12.113Z,20.43
2023-05-12T18:34:43.583Z,20.31
2023-05-12T18:37:15.038Z,20.22
2023-05-12T18:39:46.596Z,20.14
2023-05-12T18:42:18.064Z,20.04
2023-05-12T18:44:49.524Z,19.96
2023-05-12T18:47:20.971Z,19.82
2023-05-12T18:49:52.671Z,19.79
2023-05-12T18:52:24.124Z,19.78
2023-05-12T18:54:55.677Z,19.71
2023-05-12T18:57:27.127Z,19.65
2023-05-12T18:59:58.900Z,19.59
2023-05-12T19:02:30.386Z,19.44
2023-05-12T19:05:01.956Z,19.39
2023-05-12T19:07:33.460Z,19.35
2023-05-12T19:10:04.928Z,19.26
2023-05-12T19:12:36.452Z,19.22
2023-05-12T19:15:07.971Z,19.16
2023-05-12T19:17:39.537Z,19.07
2023-05-12T19:20:11.057Z,19.00
2023-05-12T19:22:42.905Z,18.92
2023-05-12T19:25:14.383Z,18.92
2023-05-12T19:27:46.287Z,18.86
2023-05-12T19:30:31.659Z,18.78
2023-05-12T19:33:03.252Z,18.69
2023-05-12T19:35:34.831Z,18.65
2023-05-12T19:38:06.688Z,18.62
2023-05-12T19:40:38.208Z,18.55
2023-05-12T19:43:09.912Z,18.52
2023-05-12T19:45:41.400Z,18.47
2023-05-12T19:48:12.949Z,18.43
2023-05-12T19:50:44.436Z,18.37
2023-05-12T19:53:15.911Z,18.33
2023-05-12T19:55:47.746Z,18.30
2023-05-12T19:58:19.200Z,18.23
2023-05-12T20:00:50.725Z,18.13
2023-05-12T20:03:22.455Z,18.07
2023-05-12T20:05:54.090Z,18.01
2023-05-12T20:08:25.670Z,17.98
2023-05-12T20:10:57.412Z,17.92
2023-05-12T20:13:30.027Z,17.86
2023-05-12T20:16:01.498Z,17.78
2023-05-12T20:18:33.080Z,17.79
2023-05-12T20:21:04.571Z,17.74
2023-05-12T20:23:36.031Z,17.69
2023-05-12T20:26:07.481Z,17.61
2023-05-12T20:28:38.951Z,17.59
2023-05-12T20:31:10.488Z,16.48
2023-05-12T20:33:41.980Z,17.50
2023-05-12T20:36:13.428Z,17.41
2023-05-12T20:38:44.891Z,17.43
2023-05-12T20:41:16.343Z,17.33
2023-05-12T20:43:48.183Z,17.28
2023-05-12T20:46:20.081Z,17.26
2023-05-12T20:48:52.037Z,17.22
2023-05-12T20:51:23.750Z,17.19
2023-05-12T20:53:55.204Z,17.18
2023-05-12T20:56:27.095Z,17.11
2023-05-12T20:58:58.636Z,17.08
2023-05-12T21:01:30.432Z,17.08
2023-05-12T21:04:02.006Z,17.05
2023-05-12T21:06:33.500Z,17.08
2023-05-12T21:09:04.952Z,17.06
2023-05-12T21:11:36.415Z,17.01
2023-05-12T21:14:07.876Z,16.98
2023-05-12T21:16:39.382Z,16.95
2023-05-12T21:19:10.991Z,16.92
2023-05-12T21:21:42.819Z,16.85
2023-05-12T21:24:14.281Z,16.78
2023-05-12T21:26:45.735Z,16.71
2023-05-12T21:29:17.193Z,16.70
2023-05-12T21:31:48.710Z,16.62
2023-05-12T21:34:20.427Z,16.58
2023-05-12T21:36:51.882Z,16.50
2023-05-12T21:39:23.351Z,16.46
2023-05-12T21:41:54.793Z,16.41
2023-05-12T21:44:26.739Z,16.35
2023-05-12T21:46:58.193Z,16.27
2023-05-12T21:49:30.115Z,16.31
2023-05-12T21:52:01.604Z,16.29
2023-05-12T21:54:33.426Z,14.82
2023-05-12T21:57:05.277Z,16.19
2023-05-12T21:59:36.722Z,16.16
2023-05-12T22:02:08.485Z,16.18
2023-05-12T22:04:39.996Z,16.13
2023-05-12T22:07:11.776Z,16.07
2023-05-12T22:09:43.246Z,16.04
2023-05-12T22:12:15.012Z,15.96
2023-05-12T22:14:46.466Z,15.91
2023-05-12T22:17:17.947Z,15.85
2023-05-12T22:19:49.436Z,15.76
2023-05-12T22:22:21.233Z,15.73
2023-05-12T22:24:52.682Z,15.74
2023-05-12T22:27:24.676Z,15.72
2023-05-12T22:29:56.516Z,15.66
2023-05-12T22:32:28.097Z,15.62
2023-05-12T22:35:00.172Z,15.60
2023-05-12T22:37:31.651Z,15.55
2023-05-12T22:40:03.419Z,15.50
2023-05-12T22:42:34.862Z,15.44
2023-05-12T22:45:06.639Z,15.39
2023-05-12T22:47:38.232Z,15.37
2023-05-12T22:50:09.734Z,15.37
2023-05-12T22:52:41.187Z,15.32
2023-05-12T22:55:13.031Z,15.25
2023-05-12T22:57:44.895Z,15.20
2023-05-12T23:00:16.693Z,15.20
2023-05-12T23:02:48.518Z,15.19
2023-05-12T23:05:20.041Z,15.19
2023-05-12T23:07:51.788Z,15.15
2023-05-12T23:10:23.511Z,15.13
2023-05-12T23:12:55.484Z,15.09
2023-05-12T23:15:26.972Z,15.09
2023-05-12T23:17:58.754Z,15.08
2023-05-12T23:20:30.258Z,15.05
2023-05-12T23:23:02.104Z,15.02
2023-05-12T23:25:33.599Z,14.93
2023-05-12T23:28:05.579Z,14.93
2023-05-12T23:30:37.048Z,14.93
2023-05-12T23:33:08.746Z,14.85
2023-05-12T23:35:40.281Z,14.86
2023-05-12T23:38:11.723Z,14.81
2023-05-12T23:40:43.182Z,14.77
2023-05-12T23:43:14.626Z,14.75
2023-05-12T23:45:46.250Z,14.70
2023-05-12T23:48:17.735Z,14.64
2023-05-12T23:50:49.175Z,14.60
2023-05-12T23:53:20.625Z,14.60
2023-05-12T23:55:52.238Z,14.49
2023-05-12T23:58:23.680Z,14.51
